sensor_id;sensor_type;location;lat;lon;timestamp;temperature;humidity
5196;DHT22;2617;51.006;12.436;2023-12-07T00:01:10;1.40;99.90
5196;DHT22;2617;51.006;12.436;2023-12-07T00:06:12;1.40;99.90
5196;DHT22;2617;51.006;12.436;2023-12-07T00:11:14;1.40;99.90
5196;DHT22;2617;51.006;12.436;2023-12-07T00:16:16;1.40;99.90
5196;DHT22;2617;51.006;12.436;2023-12-07T00:21:18;1.40;99.90
5196;DHT22;2617;51.006;12.436;2023-12-07T00:26:20;1.40;99.90
5196;DHT22;2617;51.006;12.436;2023-12-07T00:31:22;1.40;99.90
5196;DHT22;2617;51.006;12.436;2023-12-07T00:36:24;1.40;99.90
5196;DHT22;2617;51.006;12.436;2023-12-07T00:41:26;1.50;99.90
5196;DHT22;2617;51.006;12.436;2023-12-07T00:46:28;1.50;99.90
5196;DHT22;2617;51.006;12.436;2023-12-07T00:51:30;1.50;99.90
5196;DHT22;2617;51.006;12.436;2023-12-07T00:56:32;1.50;99.90
5196;DHT22;2617;51.006;12.436;2023-12-07T01:01:34;1.50;99.90
5196;DHT22;2617;51.006;12.436;2023-12-07T01:06:36;1.60;99.90
5196;DHT22;2617;51.006;12.436;2023-12-07T01:11:37;1.60;99.90
5196;DHT22;2617;51.006;12.436;2023-12-07T01:16:39;1.70;99.90
5196;DHT22;2617;51.006;12.436;2023-12-07T01:21:41;1.70;99.90
5196;DHT22;2617;51.006;12.436;2023-12-07T01:26:43;1.70;99.90
5196;DHT22;2617;51.006;12.436;2023-12-07T01:31:45;1.60;99.90
5196;DHT22;2617;51.006;12.436;2023-12-07T01:36:47;1.60;99.90
5196;DHT22;2617;51.006;12.436;2023-12-07T01:41:49;1.50;99.90
5196;DHT22;2617;51.006;12.436;2023-12-07T01:46:51;1.50;99.90
5196;DHT22;2617;51.006;12.436;2023-12-07T01:51:53;1.50;99.90
5196;DHT22;2617;51.006;12.436;2023-12-07T01:56:56;1.50;99.90
5196;DHT22;2617;51.006;12.436;2023-12-07T02:01:59;1.50;99.90
5196;DHT22;2617;51.006;12.436;2023-12-07T02:07:01;1.40;99.90
5196;DHT22;2617;51.006;12.436;2023-12-07T02:12:03;1.50;99.90
5196;DHT22;2617;51.006;12.436;2023-12-07T02:17:14;1.50;99.90
5196;DHT22;2617;51.006;12.436;2023-12-07T02:22:17;1.50;99.90
5196;DHT22;2617;51.006;12.436;2023-12-07T02:27:17;1.50;99.90
5196;DHT22;2617;51.006;12.436;2023-12-07T02:32:20;1.60;99.90
5196;DHT22;2617;51.006;12.436;2023-12-07T02:37:22;1.60;99.90
5196;DHT22;2617;51.006;12.436;2023-12-07T02:42:23;1.60;99.90
5196;DHT22;2617;51.006;12.436;2023-12-07T02:47:26;1.60;99.90
5196;DHT22;2617;51.006;12.436;2023-12-07T02:52:27;1.60;99.90
5196;DHT22;2617;51.006;12.436;2023-12-07T02:57:30;1.70;99.90
5196;DHT22;2617;51.006;12.436;2023-12-07T03:02:34;1.60;99.90
5196;DHT22;2617;51.006;12.436;2023-12-07T03:07:36;1.70;99.90
5196;DHT22;2617;51.006;12.436;2023-12-07T03:12:37;1.70;99.90
5196;DHT22;2617;51.006;12.436;2023-12-07T03:17:39;1.70;99.90
5196;DHT22;2617;51.006;12.436;2023-12-07T03:22:41;1.70;99.90
5196;DHT22;2617;51.006;12.436;2023-12-07T03:27:42;1.70;99.90
5196;DHT22;2617;51.006;12.436;2023-12-07T03:32:45;1.70;99.90
5196;DHT22;2617;51.006;12.436;2023-12-07T03:37:47;1.70;99.90
5196;DHT22;2617;51.006;12.436;2023-12-07T03:42:48;1.70;99.90
5196;DHT22;2617;51.006;12.436;2023-12-07T03:47:51;1.70;99.90
5196;DHT22;2617;51.006;12.436;2023-12-07T03:52:52;1.70;99.90
5196;DHT22;2617;51.006;12.436;2023-12-07T03:57:55;1.80;99.90
5196;DHT22;2617;51.006;12.436;2023-12-07T04:02:58;1.70;99.90
5196;DHT22;2617;51.006;12.436;2023-12-07T04:07:59;1.70;99.90
5196;DHT22;2617;51.006;12.436;2023-12-07T04:13:01;1.70;99.90
5196;DHT22;2617;51.006;12.436;2023-12-07T04:18:03;1.80;99.90
5196;DHT22;2617;51.006;12.436;2023-12-07T04:23:05;1.80;99.90
5196;DHT22;2617;51.006;12.436;2023-12-07T04:28:06;1.80;99.90
5196;DHT22;2617;51.006;12.436;2023-12-07T04:33:08;1.80;99.90
5196;DHT22;2617;51.006;12.436;2023-12-07T04:38:10;1.70;99.90
5196;DHT22;2617;51.006;12.436;2023-12-07T04:43:11;1.70;99.90
5196;DHT22;2617;51.006;12.436;2023-12-07T04:48:13;1.70;99.90
5196;DHT22;2617;51.006;12.436;2023-12-07T04:53:15;1.70;99.90
5196;DHT22;2617;51.006;12.436;2023-12-07T04:58:16;1.70;99.90
5196;DHT22;2617;51.006;12.436;2023-12-07T05:03:19;1.70;99.90
5196;DHT22;2617;51.006;12.436;2023-12-07T05:08:21;1.60;99.90
5196;DHT22;2617;51.006;12.436;2023-12-07T05:13:22;1.70;99.90
5196;DHT22;2617;51.006;12.436;2023-12-07T05:18:24;1.70;99.90
5196;DHT22;2617;51.006;12.436;2023-12-07T05:23:26;1.70;99.90
5196;DHT22;2617;51.006;12.436;2023-12-07T05:28:27;1.60;99.90
5196;DHT22;2617;51.006;12.436;2023-12-07T05:33:29;1.60;99.90
5196;DHT22;2617;51.006;12.436;2023-12-07T05:38:31;1.60;99.90
5196;DHT22;2617;51.006;12.436;2023-12-07T05:43:33;1.60;99.90
5196;DHT22;2617;51.006;12.436;2023-12-07T05:48:34;1.60;99.90
5196;DHT22;2617;51.006;12.436;2023-12-07T05:53:36;1.60;99.90
5196;DHT22;2617;51.006;12.436;2023-12-07T05:58:38;1.60;99.90
5196;DHT22;2617;51.006;12.436;2023-12-07T06:03:40;1.60;99.90
5196;DHT22;2617;51.006;12.436;2023-12-07T06:08:41;1.60;99.90
5196;DHT22;2617;51.006;12.436;2023-12-07T06:13:44;1.60;99.90
5196;DHT22;2617;51.006;12.436;2023-12-07T06:18:45;1.60;99.90
5196;DHT22;2617;51.006;12.436;2023-12-07T06:23:47;1.60;99.90
5196;DHT22;2617;51.006;12.436;2023-12-07T06:28:49;1.60;99.90
5196;DHT22;2617;51.006;12.436;2023-12-07T06:33:51;1.60;99.90
5196;DHT22;2617;51.006;12.436;2023-12-07T06:38:53;1.60;99.90
5196;DHT22;2617;51.006;12.436;2023-12-07T06:43:56;1.60;99.90
5196;DHT22;2617;51.006;12.436;2023-12-07T06:48:58;1.60;99.90
5196;DHT22;2617;51.006;12.436;2023-12-07T06:54:01;1.60;99.90
5196;DHT22;2617;51.006;12.436;2023-12-07T06:59:02;1.60;99.90
5196;DHT22;2617;51.006;12.436;2023-12-07T07:04:04;1.60;99.90
5196;DHT22;2617;51.006;12.436;2023-12-07T07:09:06;1.60;99.90
5196;DHT22;2617;51.006;12.436;2023-12-07T07:14:07;1.60;99.90
5196;DHT22;2617;51.006;12.436;2023-12-07T07:19:10;1.70;99.90
5196;DHT22;2617;51.006;12.436;2023-12-07T07:24:12;1.60;99.90
5196;DHT22;2617;51.006;12.436;2023-12-07T07:29:14;1.70;99.90
5196;DHT22;2617;51.006;12.436;2023-12-07T07:34:16;1.70;99.90
5196;DHT22;2617;51.006;12.436;2023-12-07T07:39:18;1.70;99.90
5196;DHT22;2617;51.006;12.436;2023-12-07T07:44:20;1.70;99.90
5196;DHT22;2617;51.006;12.436;2023-12-07T07:49:22;1.70;99.90
5196;DHT22;2617;51.006;12.436;2023-12-07T07:54:23;1.70;99.90
5196;DHT22;2617;51.006;12.436;2023-12-07T07:59:25;1.70;99.90
5196;DHT22;2617;51.006;12.436;2023-12-07T08:04:27;1.70;99.90
5196;DHT22;2617;51.006;12.436;2023-12-07T08:09:28;1.70;99.90
5196;DHT22;2617;51.006;12.436;2023-12-07T08:14:30;1.70;99.90
5196;DHT22;2617;51.006;12.436;2023-12-07T08:19:32;1.70;99.90
5196;DHT22;2617;51.006;12.436;2023-12-07T08:24:34;1.80;99.90
5196;DHT22;2617;51.006;12.436;2023-12-07T08:29:36;1.80;99.90
5196;DHT22;2617;51.006;12.436;2023-12-07T08:34:39;1.90;99.90
5196;DHT22;2617;51.006;12.436;2023-12-07T08:39:40;1.80;99.90
5196;DHT22;2617;51.006;12.436;2023-12-07T08:44:42;1.90;99.90
5196;DHT22;2617;51.006;12.436;2023-12-07T08:49:44;1.90;99.90
5196;DHT22;2617;51.006;12.436;2023-12-07T08:54:46;2.00;99.90
5196;DHT22;2617;51.006;12.436;2023-12-07T08:59:47;2.00;99.90
5196;DHT22;2617;51.006;12.436;2023-12-07T09:04:49;2.00;99.90
5196;DHT22;2617;51.006;12.436;2023-12-07T09:09:51;2.10;99.90
5196;DHT22;2617;51.006;12.436;2023-12-07T09:14:53;2.10;99.90
5196;DHT22;2617;51.006;12.436;2023-12-07T09:19:55;2.10;99.90
5196;DHT22;2617;51.006;12.436;2023-12-07T09:24:57;2.20;99.90
5196;DHT22;2617;51.006;12.436;2023-12-07T09:29:59;2.20;99.90
5196;DHT22;2617;51.006;12.436;2023-12-07T09:35:01;2.30;99.90
5196;DHT22;2617;51.006;12.436;2023-12-07T09:40:05;2.40;99.90
5196;DHT22;2617;51.006;12.436;2023-12-07T09:45:07;2.40;99.90
5196;DHT22;2617;51.006;12.436;2023-12-07T09:50:09;2.40;99.90
5196;DHT22;2617;51.006;12.436;2023-12-07T09:55:11;2.50;99.90
5196;DHT22;2617;51.006;12.436;2023-12-07T10:00:13;2.50;99.90
5196;DHT22;2617;51.006;12.436;2023-12-07T10:05:16;2.50;99.90
5196;DHT22;2617;51.006;12.436;2023-12-07T10:10:18;2.60;99.90
5196;DHT22;2617;51.006;12.436;2023-12-07T10:15:20;2.70;99.90
5196;DHT22;2617;51.006;12.436;2023-12-07T10:20:24;2.70;99.90
5196;DHT22;2617;51.006;12.436;2023-12-07T10:25:25;2.60;99.90
5196;DHT22;2617;51.006;12.436;2023-12-07T10:30:27;2.70;99.90
5196;DHT22;2617;51.006;12.436;2023-12-07T10:35:29;2.70;99.90
5196;DHT22;2617;51.006;12.436;2023-12-07T10:40:31;2.70;99.90
5196;DHT22;2617;51.006;12.436;2023-12-07T10:45:33;2.70;99.90
5196;DHT22;2617;51.006;12.436;2023-12-07T10:50:35;2.80;99.90
5196;DHT22;2617;51.006;12.436;2023-12-07T10:55:41;2.80;99.90
5196;DHT22;2617;51.006;12.436;2023-12-07T11:00:42;2.90;99.90
5196;DHT22;2617;51.006;12.436;2023-12-07T11:05:45;2.90;99.90
5196;DHT22;2617;51.006;12.436;2023-12-07T11:11:02;2.90;99.90
5196;DHT22;2617;51.006;12.436;2023-12-07T11:16:02;2.90;99.90
5196;DHT22;2617;51.006;12.436;2023-12-07T11:21:05;3.00;99.90
5196;DHT22;2617;51.006;12.436;2023-12-07T11:26:07;3.00;99.90
5196;DHT22;2617;51.006;12.436;2023-12-07T11:31:09;3.00;99.90
5196;DHT22;2617;51.006;12.436;2023-12-07T11:36:11;3.10;99.90
5196;DHT22;2617;51.006;12.436;2023-12-07T11:41:13;3.10;99.90
5196;DHT22;2617;51.006;12.436;2023-12-07T11:46:15;3.10;99.90
5196;DHT22;2617;51.006;12.436;2023-12-07T11:51:17;3.20;99.90
5196;DHT22;2617;51.006;12.436;2023-12-07T11:56:18;3.20;99.90
5196;DHT22;2617;51.006;12.436;2023-12-07T12:01:20;3.20;99.90
5196;DHT22;2617;51.006;12.436;2023-12-07T12:06:23;3.20;99.90
5196;DHT22;2617;51.006;12.436;2023-12-07T12:11:24;3.20;99.90
5196;DHT22;2617;51.006;12.436;2023-12-07T12:16:25;3.20;99.90
5196;DHT22;2617;51.006;12.436;2023-12-07T12:21:27;3.20;99.90
5196;DHT22;2617;51.006;12.436;2023-12-07T12:26:30;3.30;99.90
5196;DHT22;2617;51.006;12.436;2023-12-07T12:31:31;3.30;99.90
5196;DHT22;2617;51.006;12.436;2023-12-07T12:36:34;3.40;99.90
5196;DHT22;2617;51.006;12.436;2023-12-07T12:41:36;3.40;99.90
5196;DHT22;2617;51.006;12.436;2023-12-07T12:46:38;3.40;99.90
5196;DHT22;2617;51.006;12.436;2023-12-07T12:51:40;3.50;99.90
5196;DHT22;2617;51.006;12.436;2023-12-07T12:56:41;3.50;99.90
5196;DHT22;2617;51.006;12.436;2023-12-07T13:01:43;3.60;99.90
5196;DHT22;2617;51.006;12.436;2023-12-07T13:06:45;3.60;99.90
5196;DHT22;2617;51.006;12.436;2023-12-07T13:11:47;3.60;99.90
5196;DHT22;2617;51.006;12.436;2023-12-07T13:16:48;3.70;99.90
5196;DHT22;2617;51.006;12.436;2023-12-07T13:21:50;3.70;99.90
5196;DHT22;2617;51.006;12.436;2023-12-07T13:26:53;3.80;99.90
5196;DHT22;2617;51.006;12.436;2023-12-07T13:31:54;3.70;99.90
5196;DHT22;2617;51.006;12.436;2023-12-07T13:36:56;3.80;99.90
5196;DHT22;2617;51.006;12.436;2023-12-07T13:41:59;3.80;99.90
5196;DHT22;2617;51.006;12.436;2023-12-07T13:47:02;3.90;99.90
5196;DHT22;2617;51.006;12.436;2023-12-07T13:52:04;3.90;99.90
5196;DHT22;2617;51.006;12.436;2023-12-07T13:57:07;4.00;99.90
5196;DHT22;2617;51.006;12.436;2023-12-07T14:02:09;3.90;99.90
5196;DHT22;2617;51.006;12.436;2023-12-07T14:07:11;4.00;99.90
5196;DHT22;2617;51.006;12.436;2023-12-07T14:12:13;4.00;99.90
5196;DHT22;2617;51.006;12.436;2023-12-07T14:17:15;3.90;99.90
5196;DHT22;2617;51.006;12.436;2023-12-07T14:22:16;3.80;99.90
5196;DHT22;2617;51.006;12.436;2023-12-07T14:27:19;3.50;99.90
5196;DHT22;2617;51.006;12.436;2023-12-07T14:32:20;3.50;99.90
5196;DHT22;2617;51.006;12.436;2023-12-07T14:37:22;3.30;99.90
5196;DHT22;2617;51.006;12.436;2023-12-07T14:42:25;3.00;99.90
5196;DHT22;2617;51.006;12.436;2023-12-07T14:47:27;3.00;99.90
5196;DHT22;2617;51.006;12.436;2023-12-07T14:52:28;2.90;99.90
5196;DHT22;2617;51.006;12.436;2023-12-07T14:57:30;2.70;99.90
5196;DHT22;2617;51.006;12.436;2023-12-07T15:02:32;2.60;99.90
5196;DHT22;2617;51.006;12.436;2023-12-07T15:07:33;2.50;99.90
5196;DHT22;2617;51.006;12.436;2023-12-07T15:12:35;2.40;99.90
5196;DHT22;2617;51.006;12.436;2023-12-07T15:17:37;2.10;99.90
5196;DHT22;2617;51.006;12.436;2023-12-07T15:22:39;2.10;99.90
5196;DHT22;2617;51.006;12.436;2023-12-07T15:27:42;1.90;99.90
5196;DHT22;2617;51.006;12.436;2023-12-07T15:32:43;1.90;99.90
5196;DHT22;2617;51.006;12.436;2023-12-07T15:37:45;1.90;99.90
5196;DHT22;2617;51.006;12.436;2023-12-07T15:42:47;1.70;99.90
5196;DHT22;2617;51.006;12.436;2023-12-07T15:47:49;1.70;99.90
5196;DHT22;2617;51.006;12.436;2023-12-07T15:52:52;1.70;99.90
5196;DHT22;2617;51.006;12.436;2023-12-07T15:57:53;1.60;99.90
5196;DHT22;2617;51.006;12.436;2023-12-07T16:02:56;1.70;99.90
5196;DHT22;2617;51.006;12.436;2023-12-07T16:07:58;1.70;99.90
5196;DHT22;2617;51.006;12.436;2023-12-07T16:13:00;1.60;99.90
5196;DHT22;2617;51.006;12.436;2023-12-07T16:18:02;1.70;99.90
5196;DHT22;2617;51.006;12.436;2023-12-07T16:23:04;1.70;99.90
5196;DHT22;2617;51.006;12.436;2023-12-07T16:28:05;1.80;99.90
5196;DHT22;2617;51.006;12.436;2023-12-07T16:33:07;1.80;99.90
5196;DHT22;2617;51.006;12.436;2023-12-07T16:38:09;1.90;99.90
5196;DHT22;2617;51.006;12.436;2023-12-07T16:43:12;1.90;99.90
5196;DHT22;2617;51.006;12.436;2023-12-07T16:48:14;1.90;99.90
5196;DHT22;2617;51.006;12.436;2023-12-07T16:53:15;2.00;99.90
5196;DHT22;2617;51.006;12.436;2023-12-07T16:58:17;2.00;99.90
5196;DHT22;2617;51.006;12.436;2023-12-07T17:03:19;2.00;99.90
5196;DHT22;2617;51.006;12.436;2023-12-07T17:08:22;2.00;99.90
5196;DHT22;2617;51.006;12.436;2023-12-07T17:13:23;2.00;99.90
5196;DHT22;2617;51.006;12.436;2023-12-07T17:18:25;2.00;99.90
5196;DHT22;2617;51.006;12.436;2023-12-07T17:23:28;2.00;99.90
5196;DHT22;2617;51.006;12.436;2023-12-07T17:28:30;2.00;99.90
5196;DHT22;2617;51.006;12.436;2023-12-07T17:33:32;2.00;99.90
5196;DHT22;2617;51.006;12.436;2023-12-07T17:38:34;2.00;99.90
5196;DHT22;2617;51.006;12.436;2023-12-07T17:43:35;2.00;99.90
5196;DHT22;2617;51.006;12.436;2023-12-07T17:48:37;1.90;99.90
5196;DHT22;2617;51.006;12.436;2023-12-07T17:53:39;1.90;99.90
5196;DHT22;2617;51.006;12.436;2023-12-07T17:58:41;1.90;99.90
5196;DHT22;2617;51.006;12.436;2023-12-07T18:03:44;1.90;99.90
5196;DHT22;2617;51.006;12.436;2023-12-07T18:08:45;1.90;99.90
5196;DHT22;2617;51.006;12.436;2023-12-07T18:13:48;1.90;99.90
5196;DHT22;2617;51.006;12.436;2023-12-07T18:18:51;1.80;99.90
5196;DHT22;2617;51.006;12.436;2023-12-07T18:23:53;1.90;99.90
5196;DHT22;2617;51.006;12.436;2023-12-07T18:28:55;1.90;99.90
5196;DHT22;2617;51.006;12.436;2023-12-07T18:33:58;1.90;99.90
5196;DHT22;2617;51.006;12.436;2023-12-07T18:38:59;1.90;99.90
5196;DHT22;2617;51.006;12.436;2023-12-07T18:44:01;1.90;99.90
5196;DHT22;2617;51.006;12.436;2023-12-07T18:49:04;1.80;99.90
5196;DHT22;2617;51.006;12.436;2023-12-07T18:54:05;1.80;99.90
5196;DHT22;2617;51.006;12.436;2023-12-07T18:59:07;1.80;99.90
5196;DHT22;2617;51.006;12.436;2023-12-07T19:04:09;1.80;99.90
5196;DHT22;2617;51.006;12.436;2023-12-07T19:09:12;1.70;99.90
5196;DHT22;2617;51.006;12.436;2023-12-07T19:14:15;1.70;99.90
5196;DHT22;2617;51.006;12.436;2023-12-07T19:19:17;1.60;99.90
5196;DHT22;2617;51.006;12.436;2023-12-07T19:24:18;1.60;99.90
5196;DHT22;2617;51.006;12.436;2023-12-07T19:29:20;1.50;99.90
5196;DHT22;2617;51.006;12.436;2023-12-07T19:34:22;1.40;99.90
5196;DHT22;2617;51.006;12.436;2023-12-07T19:39:24;1.30;99.90
5196;DHT22;2617;51.006;12.436;2023-12-07T19:44:27;1.30;99.90
5196;DHT22;2617;51.006;12.436;2023-12-07T19:49:28;1.30;99.90
5196;DHT22;2617;51.006;12.436;2023-12-07T19:54:30;1.30;99.90
5196;DHT22;2617;51.006;12.436;2023-12-07T19:59:32;1.20;99.90
5196;DHT22;2617;51.006;12.436;2023-12-07T20:04:34;1.10;99.90
5196;DHT22;2617;51.006;12.436;2023-12-07T20:09:35;0.90;99.90
5196;DHT22;2617;51.006;12.436;2023-12-07T20:14:38;0.50;99.90
5196;DHT22;2617;51.006;12.436;2023-12-07T20:19:40;0.40;99.90
5196;DHT22;2617;51.006;12.436;2023-12-07T20:24:42;0.40;99.90
5196;DHT22;2617;51.006;12.436;2023-12-07T20:29:44;0.30;99.90
5196;DHT22;2617;51.006;12.436;2023-12-07T20:34:47;0.20;99.90
5196;DHT22;2617;51.006;12.436;2023-12-07T20:39:48;0.10;99.90
5196;DHT22;2617;51.006;12.436;2023-12-07T20:44:50;0.00;99.90
5196;DHT22;2617;51.006;12.436;2023-12-07T20:49:51;-0.10;99.90
5196;DHT22;2617;51.006;12.436;2023-12-07T20:54:54;-0.40;99.90
5196;DHT22;2617;51.006;12.436;2023-12-07T20:59:56;-0.40;99.90
5196;DHT22;2617;51.006;12.436;2023-12-07T21:04:58;-0.70;99.90
5196;DHT22;2617;51.006;12.436;2023-12-07T21:10:00;-0.70;99.90
5196;DHT22;2617;51.006;12.436;2023-12-07T21:15:02;-0.80;99.90
5196;DHT22;2617;51.006;12.436;2023-12-07T21:20:04;-0.90;99.90
5196;DHT22;2617;51.006;12.436;2023-12-07T21:25:06;-1.00;99.90
5196;DHT22;2617;51.006;12.436;2023-12-07T21:30:08;-1.10;99.90
5196;DHT22;2617;51.006;12.436;2023-12-07T21:35:11;-1.30;99.90
5196;DHT22;2617;51.006;12.436;2023-12-07T21:40:13;-1.30;99.90
5196;DHT22;2617;51.006;12.436;2023-12-07T21:45:14;-1.30;99.90
5196;DHT22;2617;51.006;12.436;2023-12-07T21:50:16;-1.40;99.90
5196;DHT22;2617;51.006;12.436;2023-12-07T21:55:18;-1.40;99.90
5196;DHT22;2617;51.006;12.436;2023-12-07T22:00:20;-1.50;99.90
5196;DHT22;2617;51.006;12.436;2023-12-07T22:05:22;-1.50;99.90
5196;DHT22;2617;51.006;12.436;2023-12-07T22:10:24;-1.50;99.90
5196;DHT22;2617;51.006;12.436;2023-12-07T22:15:25;-1.60;99.90
5196;DHT22;2617;51.006;12.436;2023-12-07T22:20:28;-1.70;99.90
5196;DHT22;2617;51.006;12.436;2023-12-07T22:25:30;-1.70;99.90
5196;DHT22;2617;51.006;12.436;2023-12-07T22:30:31;-1.80;99.90
5196;DHT22;2617;51.006;12.436;2023-12-07T22:35:33;-1.80;99.90
5196;DHT22;2617;51.006;12.436;2023-12-07T22:40:35;-1.90;99.90
5196;DHT22;2617;51.006;12.436;2023-12-07T22:45:36;-2.00;99.90
5196;DHT22;2617;51.006;12.436;2023-12-07T22:50:39;-2.10;99.90
5196;DHT22;2617;51.006;12.436;2023-12-07T22:55:41;-2.20;99.90
5196;DHT22;2617;51.006;12.436;2023-12-07T23:00:42;-2.20;99.90
5196;DHT22;2617;51.006;12.436;2023-12-07T23:05:44;-2.30;99.90
5196;DHT22;2617;51.006;12.436;2023-12-07T23:10:46;-2.30;99.90
5196;DHT22;2617;51.006;12.436;2023-12-07T23:15:48;-2.30;99.90
5196;DHT22;2617;51.006;12.436;2023-12-07T23:20:50;-2.40;99.90
5196;DHT22;2617;51.006;12.436;2023-12-07T23:25:51;-2.40;99.90
5196;DHT22;2617;51.006;12.436;2023-12-07T23:30:53;-2.40;99.90
5196;DHT22;2617;51.006;12.436;2023-12-07T23:35:55;-2.40;99.90
5196;DHT22;2617;51.006;12.436;2023-12-07T23:40:57;-2.40;99.90
5196;DHT22;2617;51.006;12.436;2023-12-07T23:45:59;-2.40;99.90
5196;DHT22;2617;51.006;12.436;2023-12-07T23:51:01;-2.40;99.90
5196;DHT22;2617;51.006;12.436;2023-12-07T23:56:02;-2.40;99.90
